createdAt,value
2022-10-06T00:01:11.463Z,16.21
2022-10-06T00:03:39.300Z,16.43
2022-10-06T00:06:08.596Z,16.57
2022-10-06T00:08:39.311Z,16.73
2022-10-06T00:11:08.785Z,16.83
2022-10-06T00:13:38.088Z,16.98
2022-10-06T00:16:17.455Z,17.12
2022-10-06T00:18:45.656Z,17.12
2022-10-06T00:21:12.925Z,17.20
2022-10-06T00:23:39.990Z,17.19
2022-10-06T00:26:16.742Z,17.28
2022-10-06T00:28:47.901Z,17.30
2022-10-06T00:31:16.681Z,17.40
2022-10-06T00:33:43.986Z,17.50
2022-10-06T00:36:11.353Z,17.51
2022-10-06T00:38:38.859Z,17.52
2022-10-06T00:41:14.585Z,17.53
2022-10-06T00:43:44.207Z,17.48
2022-10-06T00:46:46.287Z,17.63
2022-10-06T00:49:28.226Z,17.53
2022-10-06T00:52:02.788Z,17.65
2022-10-06T00:54:33.193Z,17.67
2022-10-06T00:57:00.869Z,17.68
2022-10-06T00:59:28.001Z,17.65
2022-10-06T01:02:20.734Z,17.66
2022-10-06T01:05:00.767Z,17.63
2022-10-06T01:07:30.912Z,17.56
2022-10-06T01:09:59.260Z,17.55
2022-10-06T01:12:29.442Z,17.60
2022-10-06T01:14:57.364Z,17.60
2022-10-06T01:17:42.135Z,17.60
2022-10-06T01:20:12.774Z,17.54
2022-10-06T01:22:44.577Z,17.43
2022-10-06T01:25:16.421Z,17.32
2022-10-06T01:27:53.412Z,17.13
2022-10-06T01:30:33.313Z,16.98
2022-10-06T01:33:00.646Z,16.82
2022-10-06T01:35:27.909Z,16.64
2022-10-06T01:37:54.974Z,16.53
2022-10-06T01:40:21.945Z,16.35
2022-10-06T01:42:49.021Z,16.23
2022-10-06T01:45:16.364Z,16.14
2022-10-06T01:47:43.728Z,16.02
2022-10-06T01:50:11.377Z,15.98
2022-10-06T01:52:38.484Z,15.94
2022-10-06T01:55:06.508Z,15.89
2022-10-06T01:57:42.831Z,15.88
2022-10-06T02:00:11.862Z,15.82
2022-10-06T02:02:43.616Z,15.67
2022-10-06T02:05:11.841Z,15.56
2022-10-06T02:07:42.476Z,15.38
2022-10-06T02:10:13.220Z,15.20
2022-10-06T02:12:40.346Z,15.34
2022-10-06T02:15:13.676Z,15.26
2022-10-06T02:17:40.705Z,15.10
2022-10-06T02:20:08.301Z,14.97
2022-10-06T02:22:41.216Z,14.85
2022-10-06T02:25:08.700Z,14.71
2022-10-06T02:27:37.804Z,14.70
2022-10-06T02:30:07.982Z,14.67
2022-10-06T02:32:38.965Z,14.62
2022-10-06T02:35:08.676Z,14.60
2022-10-06T02:37:35.858Z,14.60
2022-10-06T02:40:03.992Z,14.52
2022-10-06T02:42:34.726Z,14.37
2022-10-06T02:45:02.086Z,14.36
2022-10-06T02:47:29.318Z,14.27
2022-10-06T02:49:56.382Z,14.22
2022-10-06T02:52:23.631Z,14.20
2022-10-06T02:54:51.155Z,14.09
2022-10-06T02:57:18.198Z,14.01
2022-10-06T02:59:45.463Z,14.03
2022-10-06T03:02:12.617Z,14.02
2022-10-06T03:04:39.750Z,13.98
2022-10-06T03:07:06.765Z,14.02
2022-10-06T03:09:37.142Z,14.05
2022-10-06T03:12:04.290Z,14.07
2022-10-06T03:14:38.553Z,14.04
2022-10-06T03:17:09.839Z,14.03
2022-10-06T03:19:40.654Z,14.06
2022-10-06T03:22:10.510Z,14.06
2022-10-06T03:24:46.215Z,14.17
2022-10-06T03:27:13.214Z,14.32
2022-10-06T03:29:40.226Z,14.55
2022-10-06T03:32:07.934Z,15.16
2022-10-06T03:34:35.999Z,15.51
2022-10-06T03:37:05.633Z,15.78
2022-10-06T03:39:34.169Z,15.88
2022-10-06T03:42:01.713Z,16.02
2022-10-06T03:44:28.667Z,16.05
2022-10-06T03:46:55.681Z,16.09
2022-10-06T03:49:22.710Z,16.04
2022-10-06T03:51:50.101Z,16.10
2022-10-06T03:54:22.151Z,16.06
2022-10-06T03:56:51.047Z,16.01
2022-10-06T03:59:19.454Z,16.05
2022-10-06T04:01:49.162Z,16.02
2022-10-06T04:04:24.480Z,15.93
2022-10-06T04:06:55.807Z,15.84
2022-10-06T04:09:23.358Z,15.79
2022-10-06T04:11:51.770Z,15.69
2022-10-06T04:14:20.296Z,15.62
2022-10-06T04:16:50.275Z,15.38
2022-10-06T04:19:22.439Z,15.61
2022-10-06T04:21:53.431Z,15.57
2022-10-06T04:24:24.888Z,15.46
2022-10-06T04:26:52.817Z,15.38
2022-10-06T04:29:21.493Z,15.31
2022-10-06T04:31:53.294Z,15.14
2022-10-06T04:34:33.662Z,15.01
2022-10-06T04:37:00.655Z,14.91
2022-10-06T04:39:27.708Z,14.76
2022-10-06T04:41:54.829Z,14.92
2022-10-06T04:44:26.213Z,15.01
2022-10-06T04:46:55.679Z,15.01
2022-10-06T04:49:23.449Z,15.13
2022-10-06T04:51:52.761Z,15.13
2022-10-06T04:54:19.915Z,15.14
2022-10-06T04:56:50.699Z,15.13
2022-10-06T04:59:20.092Z,15.11
2022-10-06T05:01:48.711Z,15.20
2022-10-06T05:04:15.726Z,15.25
2022-10-06T05:06:42.885Z,15.23
2022-10-06T05:09:15.664Z,15.18
2022-10-06T05:11:48.227Z,15.21
2022-10-06T05:14:18.350Z,15.16
2022-10-06T05:16:48.101Z,15.06
2022-10-06T05:19:15.715Z,15.06
2022-10-06T05:21:43.213Z,15.13
2022-10-06T05:24:14.031Z,15.12
2022-10-06T05:26:41.434Z,15.13
2022-10-06T05:29:12.848Z,15.18
2022-10-06T05:31:43.078Z,15.36
2022-10-06T05:34:10.793Z,15.44
2022-10-06T05:36:38.642Z,15.62
2022-10-06T05:39:07.356Z,15.81
2022-10-06T05:41:42.915Z,16.18
2022-10-06T05:44:11.479Z,16.42
2022-10-06T05:46:40.302Z,16.66
2022-10-06T05:49:10.206Z,16.89
2022-10-06T05:51:40.534Z,16.93
2022-10-06T05:54:14.237Z,16.97
2022-10-06T05:56:41.556Z,17.08
2022-10-06T05:59:08.632Z,17.24
2022-10-06T06:01:41.798Z,17.30
2022-10-06T06:04:17.057Z,17.48
2022-10-06T06:06:50.692Z,17.53
2022-10-06T06:09:23.042Z,17.55
2022-10-06T06:11:53.167Z,17.58
2022-10-06T06:15:01.793Z,17.58
2022-10-06T06:17:34.767Z,17.57
2022-10-06T06:20:04.831Z,17.47
2022-10-06T06:22:32.661Z,17.35
2022-10-06T06:24:59.812Z,17.29
2022-10-06T06:27:26.840Z,17.23
2022-10-06T06:29:54.071Z,17.17
2022-10-06T06:32:21.062Z,16.64
2022-10-06T06:34:48.706Z,16.15
2022-10-06T06:37:16.301Z,15.70
2022-10-06T06:39:46.088Z,15.30
2022-10-06T06:42:13.047Z,15.02
2022-10-06T06:44:55.304Z,14.65
2022-10-06T06:47:30.554Z,14.37
2022-10-06T06:50:00.209Z,14.26
2022-10-06T06:52:29.307Z,14.06
2022-10-06T06:54:57.117Z,13.95
2022-10-06T06:57:24.373Z,13.79
2022-10-06T06:59:53.226Z,13.57
2022-10-06T07:02:24.286Z,13.57
2022-10-06T07:04:51.719Z,13.51
2022-10-06T07:07:21.113Z,13.43
2022-10-06T07:09:48.306Z,13.45
2022-10-06T07:12:17.371Z,13.38
2022-10-06T07:15:16.400Z,13.29
2022-10-06T07:18:05.941Z,13.38
2022-10-06T07:20:51.873Z,13.24
2022-10-06T07:23:40.525Z,13.25
2022-10-06T07:26:12.529Z,13.14
2022-10-06T07:28:42.311Z,13.21
2022-10-06T07:31:10.012Z,13.17
2022-10-06T07:33:37.586Z,13.03
2022-10-06T07:36:06.110Z,13.07
2022-10-06T07:38:34.571Z,13.05
2022-10-06T07:43:53.878Z,12.99
2022-10-06T07:46:21.681Z,13.01
2022-10-06T07:49:05.446Z,13.10
2022-10-06T07:51:32.949Z,13.15
2022-10-06T07:54:02.723Z,13.36
2022-10-06T07:56:46.341Z,13.41
2022-10-06T07:59:13.343Z,13.47
2022-10-06T08:01:40.753Z,13.40
2022-10-06T08:04:07.804Z,13.37
2022-10-06T08:06:35.185Z,13.47
2022-10-06T08:09:02.630Z,13.54
2022-10-06T08:11:29.619Z,13.50
2022-10-06T08:13:57.173Z,13.48
2022-10-06T08:16:33.044Z,13.47
2022-10-06T08:19:00.252Z,13.50
2022-10-06T08:21:31.809Z,13.62
2022-10-06T08:24:00.880Z,13.78
2022-10-06T08:26:30.041Z,13.83
2022-10-06T08:29:03.078Z,13.75
2022-10-06T08:31:32.330Z,13.76
2022-10-06T08:33:59.560Z,13.84
2022-10-06T08:36:32.113Z,14.00
2022-10-06T08:39:00.827Z,14.07
2022-10-06T08:41:43.174Z,14.10
2022-10-06T08:44:19.538Z,14.08
2022-10-06T08:47:18.716Z,13.97
2022-10-06T08:49:49.376Z,14.06
2022-10-06T08:52:54.633Z,14.06
2022-10-06T08:55:52.415Z,14.22
2022-10-06T08:58:37.112Z,14.32
2022-10-06T09:01:33.594Z,14.33
2022-10-06T09:04:07.182Z,14.35
2022-10-06T09:07:11.453Z,14.53
2022-10-06T09:10:21.792Z,14.66
2022-10-06T09:12:57.655Z,14.90
2022-10-06T09:15:30.554Z,14.97
2022-10-06T09:18:09.054Z,14.88
2022-10-06T09:20:51.175Z,14.94
2022-10-06T09:23:42.296Z,14.93
2022-10-06T09:26:13.500Z,14.84
2022-10-06T09:28:41.393Z,14.99
2022-10-06T09:31:24.059Z,15.27
2022-10-06T09:33:59.382Z,15.43
2022-10-06T09:36:27.114Z,15.60
2022-10-06T09:38:56.522Z,15.69
2022-10-06T09:41:42.742Z,15.81
2022-10-06T09:44:29.336Z,16.30
2022-10-06T09:46:56.766Z,16.44
2022-10-06T09:49:31.327Z,16.33
2022-10-06T09:52:16.107Z,16.35
2022-10-06T09:54:44.815Z,16.71
2022-10-06T09:57:20.292Z,16.36
2022-10-06T09:59:48.650Z,16.87
2022-10-06T10:02:38.323Z,18.49
2022-10-06T10:05:20.060Z,20.01
2022-10-06T10:08:00.415Z,21.66
2022-10-06T10:10:27.827Z,20.77
2022-10-06T10:12:58.424Z,21.06
2022-10-06T10:15:34.044Z,21.73
2022-10-06T10:18:13.357Z,20.96
2022-10-06T10:20:55.691Z,20.16
2022-10-06T10:23:36.536Z,20.88
2022-10-06T10:26:15.363Z,20.48
2022-10-06T10:29:33.066Z,19.74
2022-10-06T10:32:05.234Z,20.70
2022-10-06T10:35:06.747Z,20.90
2022-10-06T10:38:04.719Z,20.93
2022-10-06T10:40:45.399Z,20.96
2022-10-06T10:43:29.422Z,21.05
2022-10-06T10:46:27.865Z,21.02
2022-10-06T10:49:19.210Z,21.73
2022-10-06T10:52:14.140Z,22.59
2022-10-06T10:55:11.688Z,22.11
2022-10-06T10:57:41.313Z,23.75
2022-10-06T11:00:21.874Z,25.00
2022-10-06T11:02:55.189Z,24.35
2022-10-06T11:05:41.101Z,23.43
2022-10-06T11:08:43.111Z,23.09
2022-10-06T11:11:29.772Z,22.45
2022-10-06T11:14:03.771Z,21.04
2022-10-06T11:16:58.399Z,20.64
2022-10-06T11:19:54.258Z,19.62
2022-10-06T11:22:35.649Z,19.18
2022-10-06T11:25:38.438Z,18.81
2022-10-06T11:28:37.200Z,18.63
2022-10-06T11:31:43.612Z,18.53
2022-10-06T11:34:11.231Z,18.33
2022-10-06T11:37:18.947Z,17.73
2022-10-06T11:40:06.022Z,17.43
2022-10-06T11:42:54.934Z,17.34
2022-10-06T11:45:41.454Z,17.44
2022-10-06T11:48:28.124Z,19.15
2022-10-06T11:50:57.374Z,19.50
2022-10-06T11:53:37.085Z,19.52
2022-10-06T11:56:37.802Z,19.21
2022-10-06T11:59:24.176Z,20.10
2022-10-06T12:01:53.437Z,19.81
2022-10-06T12:04:24.555Z,19.21
2022-10-06T12:06:56.150Z,18.57
2022-10-06T12:09:26.199Z,18.44
2022-10-06T12:11:56.353Z,18.40
2022-10-06T12:18:17.365Z,18.49
2022-10-06T12:21:06.245Z,18.81
2022-10-06T12:23:56.682Z,19.06
2022-10-06T12:26:52.779Z,19.35
2022-10-06T12:30:02.123Z,19.58
2022-10-06T12:32:57.411Z,19.48
2022-10-06T12:35:39.942Z,19.62
2022-10-06T12:38:41.453Z,19.60
2022-10-06T12:41:13.750Z,19.59
2022-10-06T12:43:57.269Z,19.28
2022-10-06T12:46:40.400Z,19.29
2022-10-06T12:49:07.321Z,19.45
2022-10-06T12:51:41.823Z,19.39
2022-10-06T12:54:36.393Z,19.15
2022-10-06T12:57:18.327Z,19.26
2022-10-06T12:59:46.361Z,19.21
2022-10-06T13:02:20.982Z,19.16
2022-10-06T13:05:02.462Z,19.21
2022-10-06T13:07:33.801Z,19.09
2022-10-06T13:10:18.581Z,19.08
2022-10-06T13:12:48.415Z,19.16
2022-10-06T13:15:25.254Z,19.27
2022-10-06T13:18:22.977Z,19.29
2022-10-06T13:20:56.266Z,19.39
2022-10-06T13:23:31.217Z,19.39
2022-10-06T13:26:13.567Z,19.04
2022-10-06T13:28:43.613Z,18.95
2022-10-06T13:31:28.458Z,18.99
2022-10-06T13:33:57.235Z,18.88
2022-10-06T13:36:26.006Z,18.91
2022-10-06T13:38:53.413Z,18.95
2022-10-06T13:41:34.635Z,18.92
2022-10-06T13:44:19.089Z,18.80
2022-10-06T13:46:52.034Z,18.61
2022-10-06T13:49:31.786Z,18.48
2022-10-06T13:52:08.878Z,18.54
2022-10-06T13:54:52.115Z,18.60
2022-10-06T13:57:59.452Z,18.60
2022-10-06T14:00:34.214Z,18.60
2022-10-06T14:03:07.617Z,18.73
2022-10-06T14:05:42.388Z,18.75
2022-10-06T14:08:12.214Z,18.79
2022-10-06T14:11:02.516Z,18.70
2022-10-06T14:13:34.914Z,18.77
2022-10-06T14:16:07.373Z,18.67
2022-10-06T14:18:44.032Z,18.69
2022-10-06T14:21:35.701Z,18.76
2022-10-06T14:24:21.767Z,18.75
2022-10-06T14:26:50.539Z,18.59
2022-10-06T14:29:19.671Z,18.52
2022-10-06T14:31:47.958Z,18.47
2022-10-06T14:34:18.172Z,18.41
2022-10-06T14:36:51.310Z,18.51
2022-10-06T14:39:18.692Z,18.37
2022-10-06T14:41:45.871Z,18.47
2022-10-06T14:44:15.023Z,18.51
2022-10-06T14:46:48.197Z,18.44
2022-10-06T14:49:15.434Z,18.36
2022-10-06T14:51:44.988Z,18.14
2022-10-06T14:54:12.876Z,18.13
2022-10-06T14:56:41.830Z,17.99
2022-10-06T14:59:16.598Z,18.00
2022-10-06T15:01:44.235Z,17.91
2022-10-06T15:04:14.947Z,17.97
2022-10-06T15:07:01.703Z,17.87
2022-10-06T15:09:31.075Z,17.86
2022-10-06T15:11:59.963Z,17.85
2022-10-06T15:14:29.517Z,17.75
2022-10-06T15:17:01.258Z,17.59
2022-10-06T15:19:28.554Z,17.61
2022-10-06T15:21:56.132Z,17.46
2022-10-06T15:24:23.211Z,17.54
2022-10-06T15:27:08.721Z,17.45
2022-10-06T15:29:35.800Z,17.40
2022-10-06T15:32:06.014Z,17.27
2022-10-06T15:34:34.446Z,17.26
2022-10-06T15:37:02.245Z,17.21
2022-10-06T15:39:34.062Z,17.14
2022-10-06T15:42:01.642Z,17.03
2022-10-06T15:44:34.393Z,16.95
2022-10-06T15:47:03.750Z,16.76
2022-10-06T15:49:32.693Z,16.87
2022-10-06T15:52:03.601Z,16.81
2022-10-06T15:54:34.650Z,16.76
2022-10-06T15:57:03.743Z,16.65
2022-10-06T15:59:32.663Z,16.66
2022-10-06T16:02:04.041Z,16.54
2022-10-06T16:04:39.755Z,16.53
2022-10-06T16:07:19.114Z,16.49
2022-10-06T16:09:48.985Z,16.39
2022-10-06T16:12:20.540Z,16.34
2022-10-06T16:14:47.768Z,16.30
2022-10-06T16:17:15.539Z,16.24
2022-10-06T16:19:42.869Z,16.15
2022-10-06T16:22:14.396Z,16.05
2022-10-06T16:24:42.031Z,15.95
2022-10-06T16:27:16.229Z,15.98
2022-10-06T16:29:43.803Z,15.96
2022-10-06T16:32:11.007Z,15.84
2022-10-06T16:34:37.985Z,15.79
2022-10-06T16:37:04.947Z,15.70
2022-10-06T16:39:32.276Z,15.60
2022-10-06T16:41:59.682Z,15.56
2022-10-06T16:44:26.640Z,15.53
2022-10-06T16:46:54.144Z,15.46
2022-10-06T16:49:21.526Z,15.37
2022-10-06T16:51:48.511Z,15.30
2022-10-06T16:54:20.792Z,15.23
2022-10-06T16:56:54.328Z,15.17
2022-10-06T16:59:25.986Z,15.08
2022-10-06T17:01:53.473Z,14.98
2022-10-06T17:04:23.851Z,14.90
2022-10-06T17:06:57.006Z,14.83
2022-10-06T17:09:26.559Z,14.75
2022-10-06T17:11:57.423Z,14.65
2022-10-06T17:14:25.639Z,14.57
2022-10-06T17:16:56.100Z,14.43
2022-10-06T17:19:28.012Z,14.23
2022-10-06T17:21:58.926Z,14.08
2022-10-06T17:24:28.935Z,13.96
2022-10-06T17:26:57.367Z,13.88
2022-10-06T17:29:25.887Z,13.69
2022-10-06T17:31:58.750Z,13.68
2022-10-06T17:34:31.896Z,13.71
2022-10-06T17:37:01.039Z,13.71
2022-10-06T17:39:28.646Z,13.56
2022-10-06T17:41:56.521Z,13.29
2022-10-06T17:44:26.285Z,13.43
2022-10-06T17:46:59.134Z,13.52
2022-10-06T17:49:26.620Z,13.47
2022-10-06T17:51:55.281Z,13.45
2022-10-06T17:54:25.483Z,13.38
2022-10-06T17:56:55.723Z,13.29
2022-10-06T17:59:30.509Z,13.14
2022-10-06T18:02:02.421Z,13.12
2022-10-06T18:04:30.390Z,13.09
2022-10-06T18:06:57.727Z,12.85
2022-10-06T18:09:25.194Z,12.76
2022-10-06T18:11:56.393Z,12.68
2022-10-06T18:14:32.312Z,12.77
2022-10-06T18:17:02.334Z,12.67
2022-10-06T18:19:31.850Z,12.56
2022-10-06T18:22:12.860Z,12.46
2022-10-06T18:24:40.546Z,12.40
2022-10-06T18:27:08.528Z,12.35
2022-10-06T18:29:38.355Z,12.37
2022-10-06T18:37:42.081Z,12.26
2022-10-06T18:40:11.091Z,12.19
2022-10-06T18:42:39.424Z,12.11
2022-10-06T18:45:26.942Z,12.09
2022-10-06T18:48:13.095Z,12.06
2022-10-06T18:50:40.368Z,11.96
2022-10-06T18:53:07.572Z,11.94
2022-10-06T18:55:34.898Z,11.89
2022-10-06T18:58:02.331Z,11.95
2022-10-06T19:00:29.359Z,12.00
2022-10-06T19:02:56.856Z,11.93
2022-10-06T19:05:24.410Z,11.82
2022-10-06T19:07:53.916Z,11.76
2022-10-06T19:10:21.846Z,11.67
2022-10-06T19:12:49.539Z,11.62
2022-10-06T19:15:20.343Z,11.68
2022-10-06T19:17:48.988Z,11.71
2022-10-06T19:20:16.539Z,11.42
2022-10-06T19:22:43.604Z,11.55
2022-10-06T19:25:11.225Z,11.50
2022-10-06T19:27:38.243Z,11.47
2022-10-06T19:30:05.794Z,11.48
2022-10-06T19:32:33.046Z,11.48
2022-10-06T19:35:00.441Z,11.35
2022-10-06T19:37:30.197Z,11.27
2022-10-06T19:39:58.207Z,11.17
2022-10-06T19:42:43.968Z,11.07
2022-10-06T19:45:12.298Z,11.03
2022-10-06T19:47:40.328Z,11.04
2022-10-06T19:50:12.144Z,11.04
2022-10-06T19:52:41.332Z,11.01
2022-10-06T19:55:08.478Z,10.98
2022-10-06T19:57:35.674Z,11.05
2022-10-06T20:00:04.364Z,11.03
2022-10-06T20:02:42.906Z,11.01
2022-10-06T20:05:15.978Z,10.99
2022-10-06T20:07:46.082Z,10.93
2022-10-06T20:10:14.678Z,10.84
2022-10-06T20:12:42.011Z,10.87
2022-10-06T20:15:10.166Z,10.82
2022-10-06T20:17:37.874Z,10.75
2022-10-06T20:20:05.471Z,10.79
2022-10-06T20:22:32.620Z,10.81
2022-10-06T20:25:01.778Z,10.73
2022-10-06T20:27:28.838Z,10.76
2022-10-06T20:29:57.795Z,10.74
2022-10-06T20:32:24.842Z,10.70
2022-10-06T20:34:51.825Z,10.64
2022-10-06T20:37:18.803Z,10.61
2022-10-06T20:40:04.418Z,10.63
2022-10-06T20:42:31.424Z,10.55
2022-10-06T20:44:58.557Z,10.54
2022-10-06T20:47:25.840Z,10.43
2022-10-06T20:49:55.099Z,10.35
2022-10-06T20:52:23.894Z,10.29
2022-10-06T20:54:51.187Z,10.23
2022-10-06T20:57:18.302Z,10.23
2022-10-06T20:59:46.147Z,10.31
2022-10-06T21:02:13.463Z,10.31
2022-10-06T21:04:43.716Z,10.29
2022-10-06T21:07:11.277Z,10.20
2022-10-06T21:09:38.360Z,10.15
2022-10-06T21:12:05.489Z,10.05
2022-10-06T21:14:34.165Z,10.01
2022-10-06T21:17:01.784Z,9.98
2022-10-06T21:19:30.025Z,9.97
2022-10-06T21:21:57.255Z,9.91
2022-10-06T21:24:24.369Z,9.88
2022-10-06T21:26:52.763Z,9.82
2022-10-06T21:29:20.853Z,9.85
2022-10-06T21:31:47.955Z,9.86
2022-10-06T21:34:15.153Z,9.71
2022-10-06T21:36:43.843Z,9.81
2022-10-06T21:39:12.747Z,9.86
2022-10-06T21:41:40.715Z,9.71
2022-10-06T21:44:11.879Z,9.68
2022-10-06T21:46:46.710Z,9.65
2022-10-06T21:49:17.691Z,9.58
2022-10-06T21:51:48.431Z,9.65
2022-10-06T21:54:16.358Z,9.67
2022-10-06T21:56:44.215Z,9.63
2022-10-06T21:59:12.045Z,9.56
2022-10-06T22:01:44.479Z,9.48
2022-10-06T22:04:14.201Z,9.26
2022-10-06T22:06:42.954Z,9.39
2022-10-06T22:09:15.545Z,9.30
2022-10-06T22:11:43.465Z,9.26
2022-10-06T22:14:17.766Z,9.18
2022-10-06T22:16:45.725Z,9.24
2022-10-06T22:19:14.815Z,9.23
2022-10-06T22:21:45.305Z,9.25
2022-10-06T22:24:16.719Z,9.25
2022-10-06T22:26:45.256Z,9.27
2022-10-06T22:29:16.188Z,9.26
2022-10-06T22:31:46.170Z,9.22
2022-10-06T22:34:17.461Z,9.12
2022-10-06T22:36:44.909Z,9.08
2022-10-06T22:39:12.012Z,8.94
2022-10-06T22:41:39.203Z,9.16
2022-10-06T22:44:06.479Z,9.08
2022-10-06T22:46:36.838Z,8.96
2022-10-06T22:49:05.525Z,9.10
2022-10-06T22:51:32.731Z,8.98
2022-10-06T22:54:00.545Z,8.89
2022-10-06T22:56:30.351Z,8.84
2022-10-06T22:59:00.716Z,8.81
2022-10-06T23:01:29.472Z,8.79
2022-10-06T23:03:57.512Z,8.71
2022-10-06T23:06:25.354Z,8.58
2022-10-06T23:08:52.942Z,8.64
2022-10-06T23:11:22.131Z,8.63
2022-10-06T23:13:50.496Z,8.68
2022-10-06T23:16:19.624Z,8.76
2022-10-06T23:18:47.994Z,8.76
2022-10-06T23:21:21.515Z,8.65
2022-10-06T23:23:54.468Z,8.61
2022-10-06T23:26:23.161Z,8.65
2022-10-06T23:29:01.109Z,8.69
2022-10-06T23:31:29.639Z,8.66
2022-10-06T23:33:56.973Z,8.73
2022-10-06T23:36:24.586Z,8.69
2022-10-06T23:38:51.773Z,8.61
2022-10-06T23:41:18.885Z,8.50
2022-10-06T23:43:46.368Z,8.43
2022-10-06T23:46:14.645Z,8.48
2022-10-06T23:48:42.406Z,8.42
2022-10-06T23:51:15.500Z,8.43
2022-10-06T23:53:43.685Z,8.50
2022-10-06T23:56:11.817Z,8.41
2022-10-06T23:58:39.610Z,8.36
